Visit the IPS Meteostar Home Page IPSM Austin-Bergstrom International Airport FORECAST

Austin, Texas

75

78

82

88

88

88

88

88

68
68
65
62
62
62
62
62

8 miles away at Austin-Bergstrom International Airport 20:53 GMT

Weather:

 Cloudy 

Wind:

N 15 mph

Temperature:

75 ° F

Pressure:

29.90

Dew Point:

70 ° F

Relative Humidity:

84

Feels Like:

75 ° F

Visibility:

10 miles


Aviation Observations:

KAUS 222053Z 35013KT 10SM OVC012 24/21 A2990 RMK AO2 SLP118 T02390211 56016 =

National Weather Service Forecast:
Travis

travis- including the city of austin
217 PM CDT TUE SEP 22 2020

TONIGHT

Cloudy. A 20 percent chance of showers before midnight. Lows in the upper 60s. North winds 10 to 15 mph.

WEDNESDAY

Mostly cloudy. Highs in the upper 70s. North winds 10 to 15 mph.

WEDNESDAY NIGHT

Partly cloudy. Lows in the mid 60s. North winds 5 to 10 mph.

THURSDAY

Partly cloudy in the morning then clearing. Highs in the lower 80s. North winds 5 to 10 mph.

THURSDAY NIGHT

Clear. Lows in the lower 60s. Northeast winds 5 mph shifting to the south after midnight.

FRIDAY THROUGH TUESDAY

Clear. Highs in the upper 80s. Lows in the mid 60s.


Visit the IPS Meteostar Home Page